sensor_id;sensor_type;location;lat;lon;timestamp;P1;durP1;ratioP1;P2;durP2;ratioP2
20150;SDS011;10236;49.638;6.830;2022-08-21T00:00:54;10.77;;;5.73;;
20150;SDS011;10236;49.638;6.830;2022-08-21T00:03:20;9.27;;;5.87;;
20150;SDS011;10236;49.638;6.830;2022-08-21T00:05:47;9.70;;;6.27;;
20150;SDS011;10236;49.638;6.830;2022-08-21T00:08:15;13.50;;;5.73;;
20150;SDS011;10236;49.638;6.830;2022-08-21T00:10:41;10.03;;;5.33;;
20150;SDS011;10236;49.638;6.830;2022-08-21T00:13:07;11.00;;;5.70;;
20150;SDS011;10236;49.638;6.830;2022-08-21T00:15:34;8.97;;;5.50;;
20150;SDS011;10236;49.638;6.830;2022-08-21T00:18:01;10.47;;;5.30;;
20150;SDS011;10236;49.638;6.830;2022-08-21T00:20:27;10.20;;;5.57;;
20150;SDS011;10236;49.638;6.830;2022-08-21T00:22:53;8.60;;;5.37;;
20150;SDS011;10236;49.638;6.830;2022-08-21T00:25:20;11.30;;;5.57;;
20150;SDS011;10236;49.638;6.830;2022-08-21T00:27:46;8.37;;;5.67;;
20150;SDS011;10236;49.638;6.830;2022-08-21T00:30:12;7.77;;;5.33;;
20150;SDS011;10236;49.638;6.830;2022-08-21T00:32:39;7.57;;;5.03;;
20150;SDS011;10236;49.638;6.830;2022-08-21T00:35:06;8.97;;;6.07;;
20150;SDS011;10236;49.638;6.830;2022-08-21T00:37:32;12.07;;;5.67;;
20150;SDS011;10236;49.638;6.830;2022-08-21T00:39:58;10.17;;;5.60;;
20150;SDS011;10236;49.638;6.830;2022-08-21T00:42:25;9.30;;;5.20;;
20150;SDS011;10236;49.638;6.830;2022-08-21T00:44:51;7.83;;;4.90;;
20150;SDS011;10236;49.638;6.830;2022-08-21T00:47:18;10.63;;;5.30;;
20150;SDS011;10236;49.638;6.830;2022-08-21T00:49:44;10.03;;;5.07;;
20150;SDS011;10236;49.638;6.830;2022-08-21T00:52:11;9.67;;;5.17;;
20150;SDS011;10236;49.638;6.830;2022-08-21T00:54:39;8.13;;;5.17;;
20150;SDS011;10236;49.638;6.830;2022-08-21T00:57:07;8.03;;;4.60;;
20150;SDS011;10236;49.638;6.830;2022-08-21T00:59:36;8.27;;;4.33;;
20150;SDS011;10236;49.638;6.830;2022-08-21T01:02:04;8.00;;;4.83;;
20150;SDS011;10236;49.638;6.830;2022-08-21T01:04:32;7.40;;;5.17;;
20150;SDS011;10236;49.638;6.830;2022-08-21T01:06:58;8.47;;;5.10;;
20150;SDS011;10236;49.638;6.830;2022-08-21T01:09:24;10.43;;;5.60;;
20150;SDS011;10236;49.638;6.830;2022-08-21T01:11:50;8.73;;;4.73;;
20150;SDS011;10236;49.638;6.830;2022-08-21T01:14:16;11.07;;;5.47;;
20150;SDS011;10236;49.638;6.830;2022-08-21T01:16:45;15.07;;;5.90;;
20150;SDS011;10236;49.638;6.830;2022-08-21T01:19:12;9.37;;;4.90;;
20150;SDS011;10236;49.638;6.830;2022-08-21T01:21:39;9.87;;;5.20;;
20150;SDS011;10236;49.638;6.830;2022-08-21T01:24:05;10.17;;;5.40;;
20150;SDS011;10236;49.638;6.830;2022-08-21T01:26:32;10.53;;;6.00;;
20150;SDS011;10236;49.638;6.830;2022-08-21T01:29:07;10.50;;;5.47;;
20150;SDS011;10236;49.638;6.830;2022-08-21T01:31:35;11.23;;;5.03;;
20150;SDS011;10236;49.638;6.830;2022-08-21T01:34:02;11.63;;;5.23;;
20150;SDS011;10236;49.638;6.830;2022-08-21T01:36:28;8.50;;;4.53;;
20150;SDS011;10236;49.638;6.830;2022-08-21T01:38:54;9.27;;;5.30;;
20150;SDS011;10236;49.638;6.830;2022-08-21T01:41:20;9.20;;;4.67;;
20150;SDS011;10236;49.638;6.830;2022-08-21T01:43:46;7.37;;;4.70;;
20150;SDS011;10236;49.638;6.830;2022-08-21T01:46:12;9.83;;;5.50;;
20150;SDS011;10236;49.638;6.830;2022-08-21T01:48:38;7.23;;;4.77;;
20150;SDS011;10236;49.638;6.830;2022-08-21T01:51:05;7.17;;;4.60;;
20150;SDS011;10236;49.638;6.830;2022-08-21T01:53:31;12.07;;;5.40;;
20150;SDS011;10236;49.638;6.830;2022-08-21T01:56:00;8.73;;;4.73;;
20150;SDS011;10236;49.638;6.830;2022-08-21T01:58:26;8.70;;;4.83;;
20150;SDS011;10236;49.638;6.830;2022-08-21T02:00:52;10.20;;;5.00;;
20150;SDS011;10236;49.638;6.830;2022-08-21T02:03:18;8.90;;;4.87;;
20150;SDS011;10236;49.638;6.830;2022-08-21T02:05:44;11.17;;;5.00;;
20150;SDS011;10236;49.638;6.830;2022-08-21T02:08:10;10.67;;;4.97;;
20150;SDS011;10236;49.638;6.830;2022-08-21T02:10:36;10.07;;;5.00;;
20150;SDS011;10236;49.638;6.830;2022-08-21T02:13:02;14.67;;;5.07;;
20150;SDS011;10236;49.638;6.830;2022-08-21T02:15:28;9.03;;;4.43;;
20150;SDS011;10236;49.638;6.830;2022-08-21T02:17:55;9.00;;;5.07;;
20150;SDS011;10236;49.638;6.830;2022-08-21T02:20:23;9.07;;;5.07;;
20150;SDS011;10236;49.638;6.830;2022-08-21T02:22:49;8.87;;;4.90;;
20150;SDS011;10236;49.638;6.830;2022-08-21T02:25:16;8.73;;;4.60;;
20150;SDS011;10236;49.638;6.830;2022-08-21T02:27:44;9.80;;;4.93;;
20150;SDS011;10236;49.638;6.830;2022-08-21T02:30:13;9.07;;;4.47;;
20150;SDS011;10236;49.638;6.830;2022-08-21T02:32:39;8.23;;;4.60;;
20150;SDS011;10236;49.638;6.830;2022-08-21T02:35:07;9.47;;;4.87;;
20150;SDS011;10236;49.638;6.830;2022-08-21T02:37:34;7.40;;;4.40;;
20150;SDS011;10236;49.638;6.830;2022-08-21T02:40:00;7.47;;;4.37;;
20150;SDS011;10236;49.638;6.830;2022-08-21T02:42:26;9.33;;;4.90;;
20150;SDS011;10236;49.638;6.830;2022-08-21T02:44:52;6.93;;;4.50;;
20150;SDS011;10236;49.638;6.830;2022-08-21T02:47:18;8.53;;;4.97;;
20150;SDS011;10236;49.638;6.830;2022-08-21T02:49:44;8.87;;;4.87;;
20150;SDS011;10236;49.638;6.830;2022-08-21T02:52:10;10.60;;;5.30;;
20150;SDS011;10236;49.638;6.830;2022-08-21T02:54:36;8.23;;;4.80;;
20150;SDS011;10236;49.638;6.830;2022-08-21T02:57:02;6.63;;;4.83;;
20150;SDS011;10236;49.638;6.830;2022-08-21T02:59:28;8.77;;;4.93;;
20150;SDS011;10236;49.638;6.830;2022-08-21T03:01:54;8.80;;;5.10;;
20150;SDS011;10236;49.638;6.830;2022-08-21T03:04:20;9.07;;;4.93;;
20150;SDS011;10236;49.638;6.830;2022-08-21T03:06:47;6.37;;;4.93;;
20150;SDS011;10236;49.638;6.830;2022-08-21T03:09:13;9.70;;;5.30;;
20150;SDS011;10236;49.638;6.830;2022-08-21T03:11:39;10.33;;;4.77;;
20150;SDS011;10236;49.638;6.830;2022-08-21T03:14:05;12.23;;;4.83;;
20150;SDS011;10236;49.638;6.830;2022-08-21T03:16:31;8.93;;;4.87;;
20150;SDS011;10236;49.638;6.830;2022-08-21T03:18:57;11.23;;;5.13;;
20150;SDS011;10236;49.638;6.830;2022-08-21T03:21:23;12.13;;;4.93;;
20150;SDS011;10236;49.638;6.830;2022-08-21T03:23:49;8.03;;;5.20;;
20150;SDS011;10236;49.638;6.830;2022-08-21T03:26:15;10.90;;;5.17;;
20150;SDS011;10236;49.638;6.830;2022-08-21T03:28:42;12.53;;;5.67;;
20150;SDS011;10236;49.638;6.830;2022-08-21T03:31:08;13.70;;;5.60;;
20150;SDS011;10236;49.638;6.830;2022-08-21T03:33:34;11.37;;;5.63;;
20150;SDS011;10236;49.638;6.830;2022-08-21T03:36:02;8.83;;;5.30;;
20150;SDS011;10236;49.638;6.830;2022-08-21T03:38:29;7.27;;;4.53;;
20150;SDS011;10236;49.638;6.830;2022-08-21T03:40:56;8.87;;;5.13;;
20150;SDS011;10236;49.638;6.830;2022-08-21T03:43:22;10.43;;;5.53;;
20150;SDS011;10236;49.638;6.830;2022-08-21T03:45:48;8.10;;;4.47;;
20150;SDS011;10236;49.638;6.830;2022-08-21T03:48:14;8.07;;;4.60;;
20150;SDS011;10236;49.638;6.830;2022-08-21T03:50:41;10.87;;;5.03;;
20150;SDS011;10236;49.638;6.830;2022-08-21T03:53:08;8.80;;;4.93;;
20150;SDS011;10236;49.638;6.830;2022-08-21T03:55:34;7.57;;;5.00;;
20150;SDS011;10236;49.638;6.830;2022-08-21T03:58:00;10.93;;;5.33;;
20150;SDS011;10236;49.638;6.830;2022-08-21T04:00:26;7.80;;;5.50;;
20150;SDS011;10236;49.638;6.830;2022-08-21T04:02:52;11.03;;;5.23;;
20150;SDS011;10236;49.638;6.830;2022-08-21T04:05:18;9.90;;;5.07;;
20150;SDS011;10236;49.638;6.830;2022-08-21T04:07:52;8.30;;;5.50;;
20150;SDS011;10236;49.638;6.830;2022-08-21T04:10:18;9.30;;;5.40;;
20150;SDS011;10236;49.638;6.830;2022-08-21T04:12:44;10.47;;;5.60;;
20150;SDS011;10236;49.638;6.830;2022-08-21T04:15:10;9.30;;;5.90;;
20150;SDS011;10236;49.638;6.830;2022-08-21T04:17:36;8.30;;;5.23;;
20150;SDS011;10236;49.638;6.830;2022-08-21T04:20:02;8.50;;;5.40;;
20150;SDS011;10236;49.638;6.830;2022-08-21T04:22:28;7.60;;;4.97;;
20150;SDS011;10236;49.638;6.830;2022-08-21T04:24:54;7.70;;;5.20;;
20150;SDS011;10236;49.638;6.830;2022-08-21T04:27:20;8.27;;;5.27;;
20150;SDS011;10236;49.638;6.830;2022-08-21T04:29:46;8.27;;;5.53;;
20150;SDS011;10236;49.638;6.830;2022-08-21T04:32:12;11.63;;;5.90;;
20150;SDS011;10236;49.638;6.830;2022-08-21T04:34:38;7.77;;;5.20;;
20150;SDS011;10236;49.638;6.830;2022-08-21T04:37:04;7.67;;;5.23;;
20150;SDS011;10236;49.638;6.830;2022-08-21T04:39:30;7.33;;;5.57;;
20150;SDS011;10236;49.638;6.830;2022-08-21T04:41:56;7.63;;;5.63;;
20150;SDS011;10236;49.638;6.830;2022-08-21T04:44:22;7.50;;;5.17;;
20150;SDS011;10236;49.638;6.830;2022-08-21T04:46:48;9.33;;;5.27;;
20150;SDS011;10236;49.638;6.830;2022-08-21T04:49:14;10.23;;;6.00;;
20150;SDS011;10236;49.638;6.830;2022-08-21T04:51:40;8.10;;;5.80;;
20150;SDS011;10236;49.638;6.830;2022-08-21T04:54:08;9.37;;;5.73;;
20150;SDS011;10236;49.638;6.830;2022-08-21T04:56:48;10.03;;;5.77;;
20150;SDS011;10236;49.638;6.830;2022-08-21T04:59:17;11.20;;;5.53;;
20150;SDS011;10236;49.638;6.830;2022-08-21T05:01:44;9.77;;;6.57;;
20150;SDS011;10236;49.638;6.830;2022-08-21T05:04:11;9.13;;;5.70;;
20150;SDS011;10236;49.638;6.830;2022-08-21T05:06:38;9.13;;;5.33;;
20150;SDS011;10236;49.638;6.830;2022-08-21T05:09:06;10.60;;;5.00;;
20150;SDS011;10236;49.638;6.830;2022-08-21T05:11:34;9.67;;;5.70;;
20150;SDS011;10236;49.638;6.830;2022-08-21T05:14:00;10.90;;;6.17;;
20150;SDS011;10236;49.638;6.830;2022-08-21T05:16:26;9.20;;;5.73;;
20150;SDS011;10236;49.638;6.830;2022-08-21T05:18:52;8.27;;;5.80;;
20150;SDS011;10236;49.638;6.830;2022-08-21T05:21:18;11.40;;;5.87;;
20150;SDS011;10236;49.638;6.830;2022-08-21T05:23:45;7.80;;;5.37;;
20150;SDS011;10236;49.638;6.830;2022-08-21T05:26:11;11.43;;;5.73;;
20150;SDS011;10236;49.638;6.830;2022-08-21T05:28:37;12.63;;;6.47;;
20150;SDS011;10236;49.638;6.830;2022-08-21T05:31:03;9.43;;;6.13;;
20150;SDS011;10236;49.638;6.830;2022-08-21T05:33:29;12.27;;;6.20;;
20150;SDS011;10236;49.638;6.830;2022-08-21T05:35:56;11.27;;;6.20;;
20150;SDS011;10236;49.638;6.830;2022-08-21T05:38:25;11.33;;;6.13;;
20150;SDS011;10236;49.638;6.830;2022-08-21T05:40:53;9.20;;;6.10;;
20150;SDS011;10236;49.638;6.830;2022-08-21T05:43:19;12.00;;;5.73;;
20150;SDS011;10236;49.638;6.830;2022-08-21T05:45:45;9.00;;;6.23;;
20150;SDS011;10236;49.638;6.830;2022-08-21T05:48:12;10.63;;;5.40;;
20150;SDS011;10236;49.638;6.830;2022-08-21T05:50:38;8.40;;;5.50;;
20150;SDS011;10236;49.638;6.830;2022-08-21T05:53:05;11.33;;;6.03;;
20150;SDS011;10236;49.638;6.830;2022-08-21T05:55:31;9.53;;;5.90;;
20150;SDS011;10236;49.638;6.830;2022-08-21T05:57:57;9.70;;;6.57;;
20150;SDS011;10236;49.638;6.830;2022-08-21T06:00:23;9.70;;;5.87;;
20150;SDS011;10236;49.638;6.830;2022-08-21T06:02:49;10.17;;;5.60;;
20150;SDS011;10236;49.638;6.830;2022-08-21T06:05:16;7.03;;;5.43;;
20150;SDS011;10236;49.638;6.830;2022-08-21T06:07:42;9.43;;;5.33;;
20150;SDS011;10236;49.638;6.830;2022-08-21T06:10:08;8.83;;;5.60;;
20150;SDS011;10236;49.638;6.830;2022-08-21T06:12:34;7.97;;;5.97;;
20150;SDS011;10236;49.638;6.830;2022-08-21T06:15:00;8.87;;;6.03;;
20150;SDS011;10236;49.638;6.830;2022-08-21T06:17:26;9.53;;;4.83;;
20150;SDS011;10236;49.638;6.830;2022-08-21T06:19:52;7.50;;;5.30;;
20150;SDS011;10236;49.638;6.830;2022-08-21T06:22:19;11.47;;;6.23;;
20150;SDS011;10236;49.638;6.830;2022-08-21T06:24:45;9.10;;;5.60;;
20150;SDS011;10236;49.638;6.830;2022-08-21T06:27:11;10.80;;;6.53;;
20150;SDS011;10236;49.638;6.830;2022-08-21T06:29:37;9.60;;;5.77;;
20150;SDS011;10236;49.638;6.830;2022-08-21T06:32:03;10.60;;;6.10;;
20150;SDS011;10236;49.638;6.830;2022-08-21T06:34:31;13.17;;;5.23;;
20150;SDS011;10236;49.638;6.830;2022-08-21T06:36:57;9.73;;;5.37;;
20150;SDS011;10236;49.638;6.830;2022-08-21T06:39:23;7.50;;;5.00;;
20150;SDS011;10236;49.638;6.830;2022-08-21T06:41:49;7.97;;;4.97;;
20150;SDS011;10236;49.638;6.830;2022-08-21T06:44:16;9.03;;;4.83;;
20150;SDS011;10236;49.638;6.830;2022-08-21T06:46:43;12.30;;;5.30;;
20150;SDS011;10236;49.638;6.830;2022-08-21T06:49:09;9.30;;;5.13;;
20150;SDS011;10236;49.638;6.830;2022-08-21T06:51:35;9.90;;;4.97;;
20150;SDS011;10236;49.638;6.830;2022-08-21T06:54:01;9.40;;;5.33;;
20150;SDS011;10236;49.638;6.830;2022-08-21T06:56:27;10.77;;;4.57;;
20150;SDS011;10236;49.638;6.830;2022-08-21T06:58:53;11.30;;;4.47;;
20150;SDS011;10236;49.638;6.830;2022-08-21T07:01:20;8.77;;;4.73;;
20150;SDS011;10236;49.638;6.830;2022-08-21T07:03:48;9.93;;;4.73;;
20150;SDS011;10236;49.638;6.830;2022-08-21T07:06:14;9.77;;;4.67;;
20150;SDS011;10236;49.638;6.830;2022-08-21T07:08:41;10.93;;;4.70;;
20150;SDS011;10236;49.638;6.830;2022-08-21T07:11:09;10.87;;;4.50;;
20150;SDS011;10236;49.638;6.830;2022-08-21T07:13:44;12.23;;;4.27;;
20150;SDS011;10236;49.638;6.830;2022-08-21T07:16:10;8.83;;;3.50;;
20150;SDS011;10236;49.638;6.830;2022-08-21T07:18:36;11.97;;;3.83;;
20150;SDS011;10236;49.638;6.830;2022-08-21T07:21:03;6.97;;;3.03;;
20150;SDS011;10236;49.638;6.830;2022-08-21T07:23:30;10.07;;;3.40;;
20150;SDS011;10236;49.638;6.830;2022-08-21T07:25:57;8.60;;;3.03;;
20150;SDS011;10236;49.638;6.830;2022-08-21T07:28:24;9.50;;;3.47;;
20150;SDS011;10236;49.638;6.830;2022-08-21T07:30:50;14.50;;;3.00;;
20150;SDS011;10236;49.638;6.830;2022-08-21T07:33:17;9.83;;;3.70;;
20150;SDS011;10236;49.638;6.830;2022-08-21T07:35:43;8.80;;;2.60;;
20150;SDS011;10236;49.638;6.830;2022-08-21T07:38:09;5.88;;;2.80;;
20150;SDS011;10236;49.638;6.830;2022-08-21T07:40:35;12.30;;;2.93;;
20150;SDS011;10236;49.638;6.830;2022-08-21T07:43:01;8.70;;;2.45;;
20150;SDS011;10236;49.638;6.830;2022-08-21T07:45:27;7.50;;;2.53;;
20150;SDS011;10236;49.638;6.830;2022-08-21T07:47:54;7.82;;;2.75;;
20150;SDS011;10236;49.638;6.830;2022-08-21T07:50:20;8.77;;;2.88;;
20150;SDS011;10236;49.638;6.830;2022-08-21T07:52:46;8.20;;;2.42;;
20150;SDS011;10236;49.638;6.830;2022-08-21T07:55:14;8.43;;;2.60;;
20150;SDS011;10236;49.638;6.830;2022-08-21T07:57:41;9.25;;;2.85;;
20150;SDS011;10236;49.638;6.830;2022-08-21T08:00:08;6.60;;;2.33;;
20150;SDS011;10236;49.638;6.830;2022-08-21T08:02:35;8.65;;;3.08;;
20150;SDS011;10236;49.638;6.830;2022-08-21T08:05:03;7.25;;;2.83;;
20150;SDS011;10236;49.638;6.830;2022-08-21T08:07:36;8.32;;;2.55;;
20150;SDS011;10236;49.638;6.830;2022-08-21T08:10:18;10.95;;;2.92;;
20150;SDS011;10236;49.638;6.830;2022-08-21T08:12:45;12.82;;;3.25;;
20150;SDS011;10236;49.638;6.830;2022-08-21T08:15:12;9.90;;;2.92;;
20150;SDS011;10236;49.638;6.830;2022-08-21T08:17:39;7.90;;;2.70;;
20150;SDS011;10236;49.638;6.830;2022-08-21T08:20:06;9.55;;;2.78;;
20150;SDS011;10236;49.638;6.830;2022-08-21T08:22:33;12.32;;;3.30;;
20150;SDS011;10236;49.638;6.830;2022-08-21T08:24:59;9.63;;;2.70;;
20150;SDS011;10236;49.638;6.830;2022-08-21T08:27:25;9.20;;;2.50;;
20150;SDS011;10236;49.638;6.830;2022-08-21T08:29:51;14.02;;;2.85;;
20150;SDS011;10236;49.638;6.830;2022-08-21T08:32:18;7.57;;;2.42;;
20150;SDS011;10236;49.638;6.830;2022-08-21T08:34:44;11.40;;;3.28;;
20150;SDS011;10236;49.638;6.830;2022-08-21T08:37:27;9.60;;;2.63;;
20150;SDS011;10236;49.638;6.830;2022-08-21T08:39:53;8.75;;;2.83;;
20150;SDS011;10236;49.638;6.830;2022-08-21T08:42:27;10.27;;;2.72;;
20150;SDS011;10236;49.638;6.830;2022-08-21T08:44:55;5.88;;;2.58;;
20150;SDS011;10236;49.638;6.830;2022-08-21T08:47:22;5.82;;;2.30;;
20150;SDS011;10236;49.638;6.830;2022-08-21T08:49:54;10.43;;;2.55;;
20150;SDS011;10236;49.638;6.830;2022-08-21T08:52:22;7.50;;;2.25;;
20150;SDS011;10236;49.638;6.830;2022-08-21T08:57:38;8.70;;;2.63;;
20150;SDS011;10236;49.638;6.830;2022-08-21T09:00:07;6.18;;;2.40;;
20150;SDS011;10236;49.638;6.830;2022-08-21T09:02:35;6.10;;;2.35;;
20150;SDS011;10236;49.638;6.830;2022-08-21T09:05:01;9.48;;;3.22;;
20150;SDS011;10236;49.638;6.830;2022-08-21T09:07:45;6.22;;;2.38;;
20150;SDS011;10236;49.638;6.830;2022-08-21T09:10:16;9.35;;;3.15;;
20150;SDS011;10236;49.638;6.830;2022-08-21T09:15:36;9.25;;;2.70;;
20150;SDS011;10236;49.638;6.830;2022-08-21T09:28:35;6.32;;;2.35;;
20150;SDS011;10236;49.638;6.830;2022-08-21T09:31:08;8.05;;;2.75;;
20150;SDS011;10236;49.638;6.830;2022-08-21T09:33:37;10.85;;;2.60;;
20150;SDS011;10236;49.638;6.830;2022-08-21T09:36:03;6.93;;;2.85;;
20150;SDS011;10236;49.638;6.830;2022-08-21T09:38:33;6.55;;;2.33;;
20150;SDS011;10236;49.638;6.830;2022-08-21T09:41:06;6.95;;;2.65;;
20150;SDS011;10236;49.638;6.830;2022-08-21T09:43:33;9.23;;;2.88;;
20150;SDS011;10236;49.638;6.830;2022-08-21T09:46:10;8.60;;;2.40;;
20150;SDS011;10236;49.638;6.830;2022-08-21T09:48:46;8.48;;;3.00;;
20150;SDS011;10236;49.638;6.830;2022-08-21T09:51:18;6.63;;;2.42;;
20150;SDS011;10236;49.638;6.830;2022-08-21T09:53:49;8.30;;;2.80;;
20150;SDS011;10236;49.638;6.830;2022-08-21T09:56:18;5.47;;;2.45;;
20150;SDS011;10236;49.638;6.830;2022-08-21T09:59:12;8.10;;;2.65;;
20150;SDS011;10236;49.638;6.830;2022-08-21T10:01:43;9.50;;;2.47;;
20150;SDS011;10236;49.638;6.830;2022-08-21T10:04:09;6.78;;;2.70;;
20150;SDS011;10236;49.638;6.830;2022-08-21T10:06:36;9.75;;;3.08;;
20150;SDS011;10236;49.638;6.830;2022-08-21T10:09:03;7.13;;;2.65;;
20150;SDS011;10236;49.638;6.830;2022-08-21T10:11:30;6.32;;;2.50;;
20150;SDS011;10236;49.638;6.830;2022-08-21T10:13:59;7.10;;;2.28;;
20150;SDS011;10236;49.638;6.830;2022-08-21T10:19:19;19.15;;;7.82;;
20150;SDS011;10236;49.638;6.830;2022-08-21T10:21:57;8.02;;;2.75;;
20150;SDS011;10236;49.638;6.830;2022-08-21T10:37:18;6.93;;;2.25;;
20150;SDS011;10236;49.638;6.830;2022-08-21T10:39:57;8.27;;;3.05;;
20150;SDS011;10236;49.638;6.830;2022-08-21T10:42:28;4.85;;;2.53;;
20150;SDS011;10236;49.638;6.830;2022-08-21T10:47:35;10.15;;;2.30;;
20150;SDS011;10236;49.638;6.830;2022-08-21T10:52:55;8.73;;;2.20;;
20150;SDS011;10236;49.638;6.830;2022-08-21T10:55:26;9.20;;;1.98;;
20150;SDS011;10236;49.638;6.830;2022-08-21T10:57:57;6.40;;;2.47;;
20150;SDS011;10236;49.638;6.830;2022-08-21T11:00:24;8.02;;;2.90;;
20150;SDS011;10236;49.638;6.830;2022-08-21T11:05:20;4.68;;;2.22;;
20150;SDS011;10236;49.638;6.830;2022-08-21T11:07:51;10.02;;;2.88;;
20150;SDS011;10236;49.638;6.830;2022-08-21T11:10:27;8.40;;;2.28;;
20150;SDS011;10236;49.638;6.830;2022-08-21T11:12:56;7.43;;;2.33;;
20150;SDS011;10236;49.638;6.830;2022-08-21T11:21:15;6.22;;;2.50;;
20150;SDS011;10236;49.638;6.830;2022-08-21T11:23:45;6.40;;;2.50;;
20150;SDS011;10236;49.638;6.830;2022-08-21T11:26:23;5.75;;;2.95;;
20150;SDS011;10236;49.638;6.830;2022-08-21T11:28:52;10.52;;;3.13;;
20150;SDS011;10236;49.638;6.830;2022-08-21T11:36:51;8.77;;;2.97;;
20150;SDS011;10236;49.638;6.830;2022-08-21T11:39:32;9.95;;;2.85;;
20150;SDS011;10236;49.638;6.830;2022-08-21T12:05:24;4.97;;;2.70;;
20150;SDS011;10236;49.638;6.830;2022-08-21T12:07:59;5.90;;;2.30;;
20150;SDS011;10236;49.638;6.830;2022-08-21T12:10:30;5.53;;;2.60;;
20150;SDS011;10236;49.638;6.830;2022-08-21T12:13:05;9.57;;;3.10;;
20150;SDS011;10236;49.638;6.830;2022-08-21T12:15:31;3.95;;;2.40;;
20150;SDS011;10236;49.638;6.830;2022-08-21T12:18:01;6.75;;;2.90;;
20150;SDS011;10236;49.638;6.830;2022-08-21T12:20:43;5.38;;;2.58;;
20150;SDS011;10236;49.638;6.830;2022-08-21T12:25:42;5.97;;;2.40;;
20150;SDS011;10236;49.638;6.830;2022-08-21T12:28:13;3.78;;;2.45;;
20150;SDS011;10236;49.638;6.830;2022-08-21T12:30:41;4.80;;;2.58;;
20150;SDS011;10236;49.638;6.830;2022-08-21T12:35:43;3.72;;;2.05;;
20150;SDS011;10236;49.638;6.830;2022-08-21T12:40:46;6.30;;;2.25;;
20150;SDS011;10236;49.638;6.830;2022-08-21T12:43:14;5.97;;;2.58;;
20150;SDS011;10236;49.638;6.830;2022-08-21T12:45:42;4.75;;;2.42;;
20150;SDS011;10236;49.638;6.830;2022-08-21T12:48:11;5.57;;;2.13;;
20150;SDS011;10236;49.638;6.830;2022-08-21T12:50:44;5.40;;;2.33;;
20150;SDS011;10236;49.638;6.830;2022-08-21T12:53:12;4.57;;;2.40;;
20150;SDS011;10236;49.638;6.830;2022-08-21T12:55:41;4.78;;;2.10;;
20150;SDS011;10236;49.638;6.830;2022-08-21T12:58:21;5.80;;;2.45;;
20150;SDS011;10236;49.638;6.830;2022-08-21T13:00:49;3.65;;;2.22;;
20150;SDS011;10236;49.638;6.830;2022-08-21T13:03:16;6.57;;;2.55;;
20150;SDS011;10236;49.638;6.830;2022-08-21T13:05:42;7.93;;;2.47;;
20150;SDS011;10236;49.638;6.830;2022-08-21T13:08:09;4.78;;;1.92;;
20150;SDS011;10236;49.638;6.830;2022-08-21T13:10:36;6.65;;;2.28;;
20150;SDS011;10236;49.638;6.830;2022-08-21T13:13:03;5.47;;;2.58;;
20150;SDS011;10236;49.638;6.830;2022-08-21T13:15:31;8.95;;;2.65;;
20150;SDS011;10236;49.638;6.830;2022-08-21T13:17:58;5.72;;;2.35;;
20150;SDS011;10236;49.638;6.830;2022-08-21T13:20:31;4.97;;;2.40;;
20150;SDS011;10236;49.638;6.830;2022-08-21T13:22:57;5.00;;;2.20;;
20150;SDS011;10236;49.638;6.830;2022-08-21T13:25:29;4.90;;;2.40;;
20150;SDS011;10236;49.638;6.830;2022-08-21T13:28:00;4.20;;;2.13;;
20150;SDS011;10236;49.638;6.830;2022-08-21T13:30:27;4.22;;;2.30;;
20150;SDS011;10236;49.638;6.830;2022-08-21T13:32:57;6.68;;;2.20;;
20150;SDS011;10236;49.638;6.830;2022-08-21T13:35:25;4.85;;;2.20;;
20150;SDS011;10236;49.638;6.830;2022-08-21T13:37:52;6.20;;;2.15;;
20150;SDS011;10236;49.638;6.830;2022-08-21T13:43:46;4.10;;;2.00;;
20150;SDS011;10236;49.638;6.830;2022-08-21T13:46:14;5.20;;;2.00;;
20150;SDS011;10236;49.638;6.830;2022-08-21T13:48:40;4.05;;;2.30;;
20150;SDS011;10236;49.638;6.830;2022-08-21T13:51:06;4.03;;;2.55;;
20150;SDS011;10236;49.638;6.830;2022-08-21T13:56:09;5.57;;;2.40;;
20150;SDS011;10236;49.638;6.830;2022-08-21T13:58:46;6.00;;;2.92;;
20150;SDS011;10236;49.638;6.830;2022-08-21T14:01:23;5.00;;;2.10;;
20150;SDS011;10236;49.638;6.830;2022-08-21T14:03:52;5.32;;;2.05;;
20150;SDS011;10236;49.638;6.830;2022-08-21T14:06:22;4.05;;;2.42;;
20150;SDS011;10236;49.638;6.830;2022-08-21T14:08:50;4.20;;;2.20;;
20150;SDS011;10236;49.638;6.830;2022-08-21T14:11:17;5.03;;;2.17;;
20150;SDS011;10236;49.638;6.830;2022-08-21T14:13:44;6.47;;;2.50;;
20150;SDS011;10236;49.638;6.830;2022-08-21T14:16:13;4.93;;;2.33;;
20150;SDS011;10236;49.638;6.830;2022-08-21T14:18:47;4.05;;;1.95;;
20150;SDS011;10236;49.638;6.830;2022-08-21T14:21:13;7.65;;;4.00;;
20150;SDS011;10236;49.638;6.830;2022-08-21T14:24:07;7.93;;;2.45;;
20150;SDS011;10236;49.638;6.830;2022-08-21T14:26:55;4.20;;;2.28;;
20150;SDS011;10236;49.638;6.830;2022-08-21T14:29:44;4.20;;;2.38;;
20150;SDS011;10236;49.638;6.830;2022-08-21T14:32:19;4.70;;;2.33;;
20150;SDS011;10236;49.638;6.830;2022-08-21T14:34:45;4.70;;;2.10;;
20150;SDS011;10236;49.638;6.830;2022-08-21T14:37:11;4.70;;;2.10;;
20150;SDS011;10236;49.638;6.830;2022-08-21T14:39:37;4.97;;;2.13;;
20150;SDS011;10236;49.638;6.830;2022-08-21T14:42:03;5.88;;;2.42;;
20150;SDS011;10236;49.638;6.830;2022-08-21T14:44:29;3.72;;;2.17;;
20150;SDS011;10236;49.638;6.830;2022-08-21T14:46:58;4.90;;;2.30;;
20150;SDS011;10236;49.638;6.830;2022-08-21T14:49:25;3.67;;;2.05;;
20150;SDS011;10236;49.638;6.830;2022-08-21T14:51:51;6.07;;;2.50;;
20150;SDS011;10236;49.638;6.830;2022-08-21T14:54:21;5.07;;;2.20;;
20150;SDS011;10236;49.638;6.830;2022-08-21T14:56:47;5.05;;;2.45;;
20150;SDS011;10236;49.638;6.830;2022-08-21T14:59:13;6.38;;;2.30;;
20150;SDS011;10236;49.638;6.830;2022-08-21T15:01:39;3.85;;;2.10;;
20150;SDS011;10236;49.638;6.830;2022-08-21T15:04:05;5.35;;;2.03;;
20150;SDS011;10236;49.638;6.830;2022-08-21T15:06:31;4.60;;;2.03;;
20150;SDS011;10236;49.638;6.830;2022-08-21T15:08:57;5.03;;;2.03;;
20150;SDS011;10236;49.638;6.830;2022-08-21T15:11:23;6.13;;;2.58;;
20150;SDS011;10236;49.638;6.830;2022-08-21T15:13:52;5.45;;;2.47;;
20150;SDS011;10236;49.638;6.830;2022-08-21T15:16:18;4.93;;;2.42;;
20150;SDS011;10236;49.638;6.830;2022-08-21T15:18:44;4.13;;;2.22;;
20150;SDS011;10236;49.638;6.830;2022-08-21T15:21:10;3.90;;;1.98;;
20150;SDS011;10236;49.638;6.830;2022-08-21T15:23:36;6.68;;;2.05;;
20150;SDS011;10236;49.638;6.830;2022-08-21T15:26:02;3.67;;;1.90;;
20150;SDS011;10236;49.638;6.830;2022-08-21T15:28:28;7.80;;;2.30;;
20150;SDS011;10236;49.638;6.830;2022-08-21T15:30:54;5.38;;;1.92;;
20150;SDS011;10236;49.638;6.830;2022-08-21T15:33:24;4.20;;;2.10;;
20150;SDS011;10236;49.638;6.830;2022-08-21T15:35:58;4.50;;;2.00;;
20150;SDS011;10236;49.638;6.830;2022-08-21T15:38:24;4.25;;;1.77;;
20150;SDS011;10236;49.638;6.830;2022-08-21T15:40:50;3.88;;;1.70;;
20150;SDS011;10236;49.638;6.830;2022-08-21T15:44:00;4.00;;;1.85;;
20150;SDS011;10236;49.638;6.830;2022-08-21T15:46:06;3.28;;;1.38;;
20150;SDS011;10236;49.638;6.830;2022-08-21T15:48:35;6.55;;;2.22;;
20150;SDS011;10236;49.638;6.830;2022-08-21T15:51:01;5.22;;;1.98;;
20150;SDS011;10236;49.638;6.830;2022-08-21T15:53:27;10.85;;;1.92;;
20150;SDS011;10236;49.638;6.830;2022-08-21T15:55:53;3.97;;;2.05;;
20150;SDS011;10236;49.638;6.830;2022-08-21T15:58:19;4.38;;;2.15;;
20150;SDS011;10236;49.638;6.830;2022-08-21T16:00:47;3.22;;;1.80;;
20150;SDS011;10236;49.638;6.830;2022-08-21T16:03:15;4.10;;;2.08;;
20150;SDS011;10236;49.638;6.830;2022-08-21T16:05:42;5.43;;;1.60;;
20150;SDS011;10236;49.638;6.830;2022-08-21T16:08:08;4.07;;;1.73;;
20150;SDS011;10236;49.638;6.830;2022-08-21T16:10:35;4.55;;;1.58;;
20150;SDS011;10236;49.638;6.830;2022-08-21T16:13:05;5.63;;;2.17;;
20150;SDS011;10236;49.638;6.830;2022-08-21T16:15:32;5.18;;;2.00;;
20150;SDS011;10236;49.638;6.830;2022-08-21T16:17:58;3.55;;;1.80;;